SAV18AW FDSK-FMMI
Flight info
| Callsign | SAV18AW |
|---|---|
| Flight time | 2h 22m |
| Altitude | 27000 |
| Route | VSK T949 TONKA UM310 VMA UG653 SUNIR/N0450F370 UG653 TU DCT VSQ VSQ1V |
| Aircraft | A320/M-SDE3FGHIRWY/LB1 |
Departure
| Time | 2026-04-20 19:06 |
|---|---|
| Airport | King Mswati III International Airport (FDSK) |
Arrival
| Time | 2026-04-20 21:28 |
|---|---|
| Airport | Ivato International Airport (FMMI) |
| Time | Latitude | Longitude | Altitude | Speed | Heading |
|---|---|---|---|---|---|
| 2026-04-20 18:56 | -26.34837 | 31.72061 | 1086 ft | 0 kts | 179° |
| 2026-04-20 19:01 | -26.34841 | 31.72061 | 1086 ft | 2 kts | 179° |
| 2026-04-20 19:02 | -26.34860 | 31.72057 | 1088 ft | 4 kts | 209° |
| 2026-04-20 19:02 | -26.34860 | 31.72028 | 1088 ft | 5 kts | 298° |
| 2026-04-20 19:02 | -26.34829 | 31.71999 | 1088 ft | 7 kts | 336° |
| 2026-04-20 19:02 | -26.34778 | 31.71981 | 1088 ft | 9 kts | 345° |
| 2026-04-20 19:03 | -26.34743 | 31.71927 | 1088 ft | 10 kts | 276° |
| 2026-04-20 19:03 | -26.34743 | 31.71852 | 1088 ft | 7 kts | 271° |
| 2026-04-20 19:03 | -26.34743 | 31.71850 | 1088 ft | 0 kts | 270° |
| 2026-04-20 19:03 | -26.34743 | 31.71835 | 1088 ft | 4 kts | 269° |
| 2026-04-20 19:04 | -26.34744 | 31.71790 | 1088 ft | 7 kts | 268° |
| 2026-04-20 19:04 | -26.34738 | 31.71734 | 1089 ft | 7 kts | 284° |
| 2026-04-20 19:04 | -26.34746 | 31.71706 | 1089 ft | 5 kts | 227° |
| 2026-04-20 19:04 | -26.34789 | 31.71700 | 1088 ft | 8 kts | 175° |
| 2026-04-20 19:05 | -26.34796 | 31.71701 | 1088 ft | 0 kts | 177° |
| 2026-04-20 19:05 | -26.35012 | 31.71706 | 1087 ft | 75 kts | 179° |
| 2026-04-20 19:05 | -26.35801 | 31.71711 | 1090 ft | 147 kts | 179° |
| 2026-04-20 19:05 | -26.36923 | 31.71723 | 1634 ft | 162 kts | 180° |
| 2026-04-20 19:06 | -26.38046 | 31.71733 | 2512 ft | 162 kts | 176° |
| 2026-04-20 19:06 | -26.39179 | 31.71879 | 3167 ft | 173 kts | 153° |
| 2026-04-20 19:06 | -26.39965 | 31.72964 | 3363 ft | 202 kts | 106° |
| 2026-04-20 19:06 | -26.39761 | 31.74614 | 3640 ft | 234 kts | 66° |
| 2026-04-20 19:07 | -26.38804 | 31.76207 | 4041 ft | 261 kts | 52° |
| 2026-04-20 19:07 | -26.37564 | 31.77754 | 4740 ft | 271 kts | 46° |
| 2026-04-20 19:07 | -26.36255 | 31.79280 | 5613 ft | 273 kts | 44° |
| 2026-04-20 19:07 | -26.34945 | 31.80827 | 6456 ft | 276 kts | 45° |
| 2026-04-20 19:08 | -26.33642 | 31.82417 | 7207 ft | 280 kts | 45° |
| 2026-04-20 19:08 | -26.31036 | 31.85752 | 8678 ft | 290 kts | 47° |
| 2026-04-20 19:08 | -26.29721 | 31.87483 | 9403 ft | 296 kts | 47° |
| 2026-04-20 19:09 | -26.28383 | 31.89251 | 10104 ft | 301 kts | 47° |
| 2026-04-20 19:09 | -26.26994 | 31.91088 | 10391 ft | 322 kts | 47° |
| 2026-04-20 19:09 | -26.25496 | 31.93068 | 10530 ft | 344 kts | 47° |
| 2026-04-20 19:09 | -26.23928 | 31.95144 | 10954 ft | 355 kts | 47° |
| 2026-04-20 19:10 | -26.22333 | 31.97260 | 11537 ft | 360 kts | 47° |
| 2026-04-20 19:10 | -26.20717 | 31.99406 | 12172 ft | 363 kts | 47° |
| 2026-04-20 19:10 | -26.19082 | 32.01576 | 12796 ft | 367 kts | 47° |
| 2026-04-20 19:10 | -26.17428 | 32.03765 | 13415 ft | 371 kts | 47° |
| 2026-04-20 19:11 | -26.15759 | 32.05968 | 13985 ft | 374 kts | 47° |
| 2026-04-20 19:11 | -26.14072 | 32.08192 | 14500 ft | 378 kts | 47° |
| 2026-04-20 19:11 | -26.12408 | 32.10477 | 15041 ft | 383 kts | 52° |
| 2026-04-20 19:11 | -26.11031 | 32.13039 | 15551 ft | 389 kts | 58° |
| 2026-04-20 19:12 | -26.09703 | 32.15673 | 16082 ft | 392 kts | 58° |
| 2026-04-20 19:12 | -26.08358 | 32.18328 | 16608 ft | 395 kts | 58° |
| 2026-04-20 19:12 | -26.07000 | 32.21002 | 17132 ft | 399 kts | 57° |
| 2026-04-20 19:12 | -26.05630 | 32.23699 | 17652 ft | 402 kts | 57° |
| 2026-04-20 19:13 | -26.04245 | 32.26423 | 18170 ft | 406 kts | 57° |
| 2026-04-20 19:13 | -26.02850 | 32.29159 | 18631 ft | 409 kts | 57° |
| 2026-04-20 19:13 | -26.01439 | 32.31924 | 19105 ft | 413 kts | 57° |
| 2026-04-20 19:13 | -26.00018 | 32.34711 | 19572 ft | 416 kts | 57° |
| 2026-04-20 19:14 | -25.98585 | 32.37521 | 20047 ft | 420 kts | 57° |
| 2026-04-20 19:14 | -25.97610 | 32.39436 | 20369 ft | 422 kts | 57° |
| 2026-04-20 19:14 | -25.96159 | 32.42284 | 20836 ft | 426 kts | 57° |
| 2026-04-20 19:14 | -25.94698 | 32.45152 | 21294 ft | 429 kts | 57° |
| 2026-04-20 19:15 | -25.93215 | 32.48059 | 21773 ft | 433 kts | 56° |
| 2026-04-20 19:15 | -25.91726 | 32.50976 | 22210 ft | 436 kts | 56° |
| 2026-04-20 19:15 | -25.90221 | 32.53917 | 22646 ft | 440 kts | 56° |
| 2026-04-20 19:15 | -25.88704 | 32.56873 | 23052 ft | 443 kts | 56° |
| 2026-04-20 19:16 | -25.87296 | 32.59935 | 23483 ft | 450 kts | 64° |
| 2026-04-20 19:16 | -25.86347 | 32.63276 | 23825 ft | 458 kts | 75° |
| 2026-04-20 19:16 | -25.85706 | 32.66767 | 24169 ft | 461 kts | 76° |
| 2026-04-20 19:16 | -25.85065 | 32.70273 | 24502 ft | 464 kts | 75° |
| 2026-04-20 19:17 | -25.84413 | 32.73798 | 24830 ft | 467 kts | 75° |
| 2026-04-20 19:17 | -25.83753 | 32.77336 | 25153 ft | 470 kts | 75° |
| 2026-04-20 19:17 | -25.83084 | 32.80906 | 25478 ft | 473 kts | 75° |
| 2026-04-20 19:17 | -25.82414 | 32.84477 | 25798 ft | 475 kts | 75° |
| 2026-04-20 19:18 | -25.81738 | 32.88085 | 26114 ft | 478 kts | 75° |
| 2026-04-20 19:18 | -25.81058 | 32.91713 | 26421 ft | 481 kts | 75° |
| 2026-04-20 19:18 | -25.80375 | 32.95350 | 26724 ft | 484 kts | 75° |
| 2026-04-20 19:18 | -25.79684 | 32.99023 | 27021 ft | 487 kts | 75° |
| 2026-04-20 19:19 | -25.78991 | 33.02709 | 27325 ft | 489 kts | 75° |
| 2026-04-20 19:19 | -25.78295 | 33.06416 | 27628 ft | 492 kts | 75° |
| 2026-04-20 19:19 | -25.77596 | 33.10139 | 27927 ft | 495 kts | 75° |
| 2026-04-20 19:19 | -25.76891 | 33.13892 | 28229 ft | 498 kts | 75° |
| 2026-04-20 19:20 | -25.76181 | 33.17665 | 28527 ft | 500 kts | 75° |
| 2026-04-20 19:20 | -25.75468 | 33.21451 | 28824 ft | 503 kts | 75° |
| 2026-04-20 19:20 | -25.74746 | 33.25264 | 29112 ft | 506 kts | 75° |
| 2026-04-20 19:20 | -25.74018 | 33.29098 | 29396 ft | 509 kts | 75° |
| 2026-04-20 19:21 | -25.73287 | 33.32940 | 29721 ft | 510 kts | 75° |
| 2026-04-20 19:21 | -25.72555 | 33.36788 | 30132 ft | 510 kts | 75° |
| 2026-04-20 19:21 | -25.71824 | 33.40621 | 30473 ft | 510 kts | 75° |
| 2026-04-20 19:21 | -25.71087 | 33.44477 | 30804 ft | 510 kts | 75° |
| 2026-04-20 19:22 | -25.70349 | 33.48324 | 31136 ft | 511 kts | 75° |
| 2026-04-20 19:22 | -25.69611 | 33.52184 | 31469 ft | 511 kts | 75° |
| 2026-04-20 19:22 | -25.68861 | 33.56093 | 31817 ft | 512 kts | 75° |
| 2026-04-20 19:22 | -25.68127 | 33.59915 | 32149 ft | 512 kts | 76° |
| 2026-04-20 19:23 | -25.67387 | 33.63765 | 32504 ft | 512 kts | 76° |
| 2026-04-20 19:23 | -25.66642 | 33.67633 | 32871 ft | 513 kts | 76° |
| 2026-04-20 19:23 | -25.65895 | 33.71515 | 33234 ft | 513 kts | 76° |
| 2026-04-20 19:23 | -25.65151 | 33.75364 | 33584 ft | 513 kts | 76° |
| 2026-04-20 19:24 | -25.64398 | 33.79245 | 33944 ft | 514 kts | 76° |
| 2026-04-20 19:24 | -25.63645 | 33.83115 | 34254 ft | 514 kts | 76° |
| 2026-04-20 19:24 | -25.62891 | 33.86982 | 34578 ft | 513 kts | 76° |
| 2026-04-20 19:24 | -25.62137 | 33.90851 | 34909 ft | 512 kts | 76° |
| 2026-04-20 19:25 | -25.61389 | 33.94695 | 35243 ft | 511 kts | 76° |
| 2026-04-20 19:25 | -25.60640 | 33.98548 | 35567 ft | 510 kts | 76° |
| 2026-04-20 19:25 | -25.59894 | 34.02380 | 35881 ft | 509 kts | 76° |
| 2026-04-20 19:25 | -25.59145 | 34.06220 | 36183 ft | 508 kts | 76° |
| 2026-04-20 19:26 | -25.58402 | 34.10034 | 36482 ft | 507 kts | 76° |
| 2026-04-20 19:26 | -25.57672 | 34.13873 | 36777 ft | 507 kts | 77° |
| 2026-04-20 19:26 | -25.56966 | 34.17689 | 36935 ft | 507 kts | 77° |
| 2026-04-20 19:27 | -25.55559 | 34.25402 | 36960 ft | 513 kts | 77° |
| 2026-04-20 19:27 | -25.54136 | 34.33166 | 36961 ft | 514 kts | 77° |
| 2026-04-20 19:28 | -25.52688 | 34.40918 | 36958 ft | 515 kts | 77° |
| 2026-04-20 19:28 | -25.51234 | 34.48690 | 36960 ft | 516 kts | 77° |
| 2026-04-20 19:29 | -25.49771 | 34.56460 | 36953 ft | 516 kts | 76° |
| 2026-04-20 19:29 | -25.48303 | 34.64246 | 36954 ft | 517 kts | 77° |
| 2026-04-20 19:30 | -25.46837 | 34.72048 | 36956 ft | 517 kts | 77° |
| 2026-04-20 19:30 | -25.45365 | 34.79847 | 36957 ft | 518 kts | 76° |
| 2026-04-20 19:31 | -25.43878 | 34.87643 | 36954 ft | 518 kts | 76° |
| 2026-04-20 19:31 | -25.42387 | 34.95456 | 36966 ft | 519 kts | 76° |
| 2026-04-20 19:32 | -25.40894 | 35.03260 | 36958 ft | 519 kts | 76° |
| 2026-04-20 19:32 | -25.39390 | 35.11058 | 36983 ft | 519 kts | 76° |
| 2026-04-20 19:33 | -25.37895 | 35.18878 | 36965 ft | 520 kts | 76° |
| 2026-04-20 19:33 | -25.36394 | 35.26701 | 36978 ft | 520 kts | 76° |
| 2026-04-20 19:34 | -25.34879 | 35.34531 | 36975 ft | 520 kts | 76° |
| 2026-04-20 19:34 | -25.33357 | 35.42346 | 36982 ft | 520 kts | 76° |
| 2026-04-20 19:35 | -25.31837 | 35.50160 | 36973 ft | 520 kts | 76° |
| 2026-04-20 19:35 | -25.30314 | 35.57971 | 36977 ft | 520 kts | 76° |
| 2026-04-20 19:36 | -25.28784 | 35.65776 | 36983 ft | 520 kts | 76° |
| 2026-04-20 19:36 | -25.27244 | 35.73580 | 36978 ft | 519 kts | 76° |
| 2026-04-20 19:37 | -25.25711 | 35.81380 | 36987 ft | 519 kts | 76° |
| 2026-04-20 19:37 | -25.24182 | 35.89169 | 36985 ft | 519 kts | 76° |
| 2026-04-20 19:38 | -25.22643 | 35.96961 | 36985 ft | 519 kts | 76° |
| 2026-04-20 19:38 | -25.21092 | 36.04738 | 36992 ft | 519 kts | 76° |
| 2026-04-20 19:39 | -25.19541 | 36.12520 | 36991 ft | 518 kts | 76° |
| 2026-04-20 19:39 | -25.17993 | 36.20285 | 36996 ft | 518 kts | 76° |
| 2026-04-20 19:40 | -25.16434 | 36.28071 | 37000 ft | 518 kts | 76° |
| 2026-04-20 19:40 | -25.14867 | 36.35834 | 37002 ft | 518 kts | 76° |
| 2026-04-20 19:41 | -25.13305 | 36.43597 | 37006 ft | 518 kts | 76° |
| 2026-04-20 19:41 | -25.11736 | 36.51361 | 37008 ft | 517 kts | 76° |
| 2026-04-20 19:42 | -25.10137 | 36.59088 | 37009 ft | 517 kts | 75° |
| 2026-04-20 19:42 | -25.08416 | 36.66788 | 37013 ft | 516 kts | 75° |
| 2026-04-20 19:43 | -25.06660 | 36.74475 | 37013 ft | 516 kts | 75° |
| 2026-04-20 19:43 | -25.04936 | 36.82168 | 37017 ft | 516 kts | 75° |
| 2026-04-20 19:44 | -25.03232 | 36.89856 | 37019 ft | 516 kts | 75° |
| 2026-04-20 19:44 | -25.01512 | 36.97545 | 37019 ft | 516 kts | 75° |
| 2026-04-20 19:45 | -24.99781 | 37.05219 | 37023 ft | 516 kts | 75° |
| 2026-04-20 19:45 | -24.98047 | 37.12908 | 37022 ft | 516 kts | 75° |
| 2026-04-20 19:46 | -24.96311 | 37.20571 | 37025 ft | 516 kts | 75° |
| 2026-04-20 19:46 | -24.94572 | 37.28241 | 37027 ft | 515 kts | 75° |
| 2026-04-20 19:47 | -24.92837 | 37.35900 | 37029 ft | 515 kts | 75° |
| 2026-04-20 19:47 | -24.91093 | 37.43551 | 37026 ft | 515 kts | 75° |
| 2026-04-20 19:48 | -24.89347 | 37.51210 | 37032 ft | 515 kts | 75° |
| 2026-04-20 19:48 | -24.87887 | 37.57615 | 37036 ft | 515 kts | 75° |
| 2026-04-20 19:49 | -24.86136 | 37.65259 | 37038 ft | 514 kts | 75° |
| 2026-04-20 19:49 | -24.84382 | 37.72880 | 37037 ft | 514 kts | 75° |
| 2026-04-20 19:50 | -24.82618 | 37.80513 | 37037 ft | 514 kts | 75° |
| 2026-04-20 19:50 | -24.80857 | 37.88134 | 37039 ft | 513 kts | 75° |
| 2026-04-20 19:51 | -24.79098 | 37.95745 | 37038 ft | 513 kts | 75° |
| 2026-04-20 19:51 | -24.77335 | 38.03355 | 37036 ft | 513 kts | 75° |
| 2026-04-20 19:52 | -24.75566 | 38.10962 | 37039 ft | 513 kts | 76° |
| 2026-04-20 19:52 | -24.73793 | 38.18553 | 37038 ft | 512 kts | 76° |
| 2026-04-20 19:53 | -24.72026 | 38.26140 | 37037 ft | 512 kts | 76° |
| 2026-04-20 19:53 | -24.70243 | 38.33726 | 37037 ft | 512 kts | 76° |
| 2026-04-20 19:54 | -24.68455 | 38.41299 | 37041 ft | 511 kts | 76° |
| 2026-04-20 19:54 | -24.66666 | 38.48921 | 37038 ft | 511 kts | 76° |
| 2026-04-20 19:55 | -24.64884 | 38.56480 | 37038 ft | 511 kts | 76° |
| 2026-04-20 19:55 | -24.63093 | 38.64051 | 37038 ft | 511 kts | 76° |
| 2026-04-20 19:56 | -24.61295 | 38.71599 | 37041 ft | 511 kts | 76° |
| 2026-04-20 19:56 | -24.59493 | 38.79142 | 37041 ft | 510 kts | 76° |
| 2026-04-20 19:57 | -24.57695 | 38.86696 | 37042 ft | 510 kts | 76° |
| 2026-04-20 19:57 | -24.55896 | 38.94233 | 37040 ft | 510 kts | 76° |
| 2026-04-20 19:58 | -24.54092 | 39.01759 | 37049 ft | 510 kts | 76° |
| 2026-04-20 19:58 | -24.52282 | 39.09304 | 37047 ft | 509 kts | 76° |
| 2026-04-20 19:59 | -24.50474 | 39.16824 | 37047 ft | 509 kts | 76° |
| 2026-04-20 19:59 | -24.48661 | 39.24330 | 37048 ft | 509 kts | 76° |
| 2026-04-20 20:00 | -24.46848 | 39.31833 | 37048 ft | 508 kts | 76° |
| 2026-04-20 20:00 | -24.45034 | 39.39323 | 37052 ft | 508 kts | 76° |
| 2026-04-20 20:01 | -24.43207 | 39.46811 | 37042 ft | 507 kts | 76° |
| 2026-04-20 20:01 | -24.41389 | 39.54288 | 37049 ft | 507 kts | 76° |
| 2026-04-20 20:02 | -24.39572 | 39.61768 | 37052 ft | 507 kts | 76° |
| 2026-04-20 20:02 | -24.37748 | 39.69235 | 37057 ft | 507 kts | 76° |
| 2026-04-20 20:03 | -24.35914 | 39.76695 | 37056 ft | 506 kts | 76° |
| 2026-04-20 20:03 | -24.34074 | 39.84148 | 37057 ft | 506 kts | 76° |
| 2026-04-20 20:04 | -24.32248 | 39.91593 | 37053 ft | 505 kts | 76° |
| 2026-04-20 20:04 | -24.30417 | 39.99035 | 37051 ft | 505 kts | 76° |
| 2026-04-20 20:05 | -24.28615 | 40.06482 | 37055 ft | 505 kts | 77° |
| 2026-04-20 20:05 | -24.26910 | 40.13939 | 37056 ft | 504 kts | 77° |
| 2026-04-20 20:06 | -24.25219 | 40.21392 | 37053 ft | 504 kts | 77° |
| 2026-04-20 20:06 | -24.23498 | 40.28823 | 37058 ft | 503 kts | 77° |
| 2026-04-20 20:07 | -24.21750 | 40.36266 | 37059 ft | 503 kts | 77° |
| 2026-04-20 20:07 | -24.20009 | 40.43677 | 37057 ft | 503 kts | 77° |
| 2026-04-20 20:08 | -24.18268 | 40.51095 | 37056 ft | 502 kts | 77° |
| 2026-04-20 20:08 | -24.16528 | 40.58502 | 37061 ft | 502 kts | 77° |
| 2026-04-20 20:09 | -24.14793 | 40.65895 | 37055 ft | 502 kts | 77° |
| 2026-04-20 20:09 | -24.13048 | 40.73306 | 37054 ft | 501 kts | 77° |
| 2026-04-20 20:10 | -24.11295 | 40.80708 | 37056 ft | 501 kts | 77° |
| 2026-04-20 20:10 | -24.09544 | 40.88078 | 37059 ft | 501 kts | 77° |
| 2026-04-20 20:11 | -24.07795 | 40.95445 | 37054 ft | 500 kts | 77° |
| 2026-04-20 20:11 | -24.06044 | 41.02813 | 37060 ft | 500 kts | 77° |
| 2026-04-20 20:12 | -24.04286 | 41.10168 | 37060 ft | 499 kts | 77° |
| 2026-04-20 20:12 | -24.02522 | 41.17509 | 37061 ft | 499 kts | 77° |
| 2026-04-20 20:13 | -23.99875 | 41.28524 | 37053 ft | 498 kts | 77° |
| 2026-04-20 20:13 | -23.98120 | 41.35851 | 37053 ft | 498 kts | 77° |
| 2026-04-20 20:14 | -23.96361 | 41.43174 | 37064 ft | 498 kts | 77° |
| 2026-04-20 20:14 | -23.94586 | 41.50487 | 37056 ft | 498 kts | 77° |
| 2026-04-20 20:15 | -23.92807 | 41.57806 | 37051 ft | 497 kts | 77° |
| 2026-04-20 20:15 | -23.91029 | 41.65111 | 37061 ft | 497 kts | 77° |
| 2026-04-20 20:16 | -23.89257 | 41.72420 | 37058 ft | 497 kts | 77° |
| 2026-04-20 20:16 | -23.87486 | 41.79711 | 37056 ft | 497 kts | 77° |
| 2026-04-20 20:17 | -23.85707 | 41.87016 | 37057 ft | 496 kts | 77° |
| 2026-04-20 20:17 | -23.83919 | 41.94294 | 37056 ft | 496 kts | 77° |
| 2026-04-20 20:18 | -23.82128 | 42.01566 | 37060 ft | 496 kts | 77° |
| 2026-04-20 20:18 | -23.80627 | 42.07670 | 37057 ft | 496 kts | 77° |
| 2026-04-20 20:19 | -23.78552 | 42.16115 | 37054 ft | 496 kts | 77° |
| 2026-04-20 20:19 | -23.77049 | 42.22205 | 37056 ft | 496 kts | 77° |
| 2026-04-20 20:20 | -23.75250 | 42.29471 | 37057 ft | 495 kts | 78° |
| 2026-04-20 20:20 | -23.73448 | 42.36725 | 37061 ft | 495 kts | 77° |
| 2026-04-20 20:21 | -23.71640 | 42.43978 | 37061 ft | 495 kts | 77° |
| 2026-04-20 20:21 | -23.69823 | 42.51239 | 37059 ft | 495 kts | 77° |
| 2026-04-20 20:22 | -23.68023 | 42.58480 | 37059 ft | 495 kts | 78° |
| 2026-04-20 20:22 | -23.66216 | 42.65722 | 37055 ft | 495 kts | 78° |
| 2026-04-20 20:23 | -23.64395 | 42.72969 | 37061 ft | 494 kts | 77° |
| 2026-04-20 20:23 | -23.62567 | 42.80197 | 37059 ft | 494 kts | 77° |
| 2026-04-20 20:24 | -23.60748 | 42.87422 | 37059 ft | 494 kts | 78° |
| 2026-04-20 20:24 | -23.58937 | 42.94644 | 37058 ft | 494 kts | 78° |
| 2026-04-20 20:25 | -23.57113 | 43.01866 | 37060 ft | 493 kts | 78° |
| 2026-04-20 20:25 | -23.55280 | 43.09071 | 37058 ft | 493 kts | 78° |
| 2026-04-20 20:26 | -23.53461 | 43.16233 | 37055 ft | 493 kts | 78° |
| 2026-04-20 20:26 | -23.51621 | 43.23463 | 37061 ft | 492 kts | 78° |
| 2026-04-20 20:27 | -23.49787 | 43.30634 | 37060 ft | 492 kts | 78° |
| 2026-04-20 20:27 | -23.47950 | 43.37812 | 37064 ft | 491 kts | 78° |
| 2026-04-20 20:28 | -23.46116 | 43.44972 | 37060 ft | 491 kts | 78° |
| 2026-04-20 20:28 | -23.44280 | 43.52136 | 37063 ft | 490 kts | 78° |
| 2026-04-20 20:29 | -23.42449 | 43.59281 | 37064 ft | 490 kts | 78° |
| 2026-04-20 20:29 | -23.40548 | 43.66403 | 37066 ft | 492 kts | 72° |
| 2026-04-20 20:30 | -23.37229 | 43.72928 | 37066 ft | 497 kts | 53° |
| 2026-04-20 20:30 | -23.32222 | 43.78116 | 37062 ft | 499 kts | 38° |
| 2026-04-20 20:31 | -23.26773 | 43.82791 | 37062 ft | 499 kts | 39° |
| 2026-04-20 20:31 | -23.21329 | 43.87499 | 37070 ft | 500 kts | 39° |
| 2026-04-20 20:32 | -23.15881 | 43.92195 | 37068 ft | 500 kts | 39° |
| 2026-04-20 20:32 | -23.10410 | 43.96898 | 37076 ft | 500 kts | 39° |
| 2026-04-20 20:33 | -23.04948 | 44.01576 | 37082 ft | 500 kts | 39° |
| 2026-04-20 20:33 | -22.99471 | 44.06252 | 37086 ft | 500 kts | 39° |
| 2026-04-20 20:34 | -22.94004 | 44.10938 | 37091 ft | 500 kts | 39° |
| 2026-04-20 20:34 | -22.88538 | 44.15620 | 37094 ft | 501 kts | 39° |
| 2026-04-20 20:35 | -22.83073 | 44.20286 | 37097 ft | 501 kts | 39° |
| 2026-04-20 20:35 | -22.77593 | 44.24947 | 37102 ft | 501 kts | 39° |
| 2026-04-20 20:36 | -22.72109 | 44.29613 | 37099 ft | 501 kts | 39° |
| 2026-04-20 20:36 | -22.66634 | 44.34276 | 37094 ft | 500 kts | 39° |
| 2026-04-20 20:37 | -22.61161 | 44.38930 | 37091 ft | 500 kts | 39° |
| 2026-04-20 20:37 | -22.55677 | 44.43595 | 37091 ft | 501 kts | 39° |
| 2026-04-20 20:38 | -22.50188 | 44.48251 | 37088 ft | 501 kts | 39° |
| 2026-04-20 20:38 | -22.44708 | 44.52898 | 37085 ft | 501 kts | 39° |
| 2026-04-20 20:39 | -22.39218 | 44.57544 | 37081 ft | 501 kts | 39° |
| 2026-04-20 20:39 | -22.33735 | 44.62185 | 37076 ft | 501 kts | 39° |
| 2026-04-20 20:40 | -22.28240 | 44.66826 | 37074 ft | 501 kts | 39° |
| 2026-04-20 20:40 | -22.22751 | 44.71457 | 37070 ft | 500 kts | 39° |
| 2026-04-20 20:41 | -22.17269 | 44.76074 | 37062 ft | 500 kts | 39° |
| 2026-04-20 20:41 | -22.11777 | 44.80705 | 37065 ft | 499 kts | 39° |
| 2026-04-20 20:42 | -22.06304 | 44.85324 | 37062 ft | 499 kts | 39° |
| 2026-04-20 20:42 | -22.00828 | 44.89921 | 37053 ft | 499 kts | 39° |
| 2026-04-20 20:43 | -21.95346 | 44.94521 | 37057 ft | 499 kts | 39° |
| 2026-04-20 20:43 | -21.89879 | 44.99111 | 37052 ft | 498 kts | 39° |
| 2026-04-20 20:44 | -21.84415 | 45.03697 | 37053 ft | 498 kts | 39° |
| 2026-04-20 20:44 | -21.78941 | 45.08273 | 37046 ft | 498 kts | 39° |
| 2026-04-20 20:45 | -21.73475 | 45.12845 | 37046 ft | 497 kts | 40° |
| 2026-04-20 20:45 | -21.68011 | 45.17415 | 37049 ft | 497 kts | 39° |
| 2026-04-20 20:46 | -21.62549 | 45.21974 | 37049 ft | 497 kts | 40° |
| 2026-04-20 20:46 | -21.57086 | 45.26525 | 37047 ft | 497 kts | 40° |
| 2026-04-20 20:47 | -21.51619 | 45.31077 | 37049 ft | 497 kts | 40° |
| 2026-04-20 20:47 | -21.46164 | 45.35624 | 37055 ft | 496 kts | 40° |
| 2026-04-20 20:48 | -21.40707 | 45.40162 | 37056 ft | 496 kts | 40° |
| 2026-04-20 20:48 | -21.35243 | 45.44692 | 37056 ft | 496 kts | 40° |
| 2026-04-20 20:49 | -21.29779 | 45.49222 | 37059 ft | 496 kts | 40° |
| 2026-04-20 20:49 | -21.24328 | 45.53750 | 37059 ft | 496 kts | 40° |
| 2026-04-20 20:50 | -21.18867 | 45.58277 | 37059 ft | 496 kts | 40° |
| 2026-04-20 20:50 | -21.13410 | 45.62796 | 37060 ft | 495 kts | 40° |
| 2026-04-20 20:51 | -21.07960 | 45.67299 | 37057 ft | 495 kts | 40° |
| 2026-04-20 20:51 | -21.02505 | 45.71804 | 37063 ft | 495 kts | 40° |
| 2026-04-20 20:52 | -20.97937 | 45.75576 | 37064 ft | 495 kts | 40° |
| 2026-04-20 20:52 | -20.92484 | 45.80071 | 37062 ft | 495 kts | 40° |
| 2026-04-20 20:53 | -20.87021 | 45.84568 | 37066 ft | 495 kts | 40° |
| 2026-04-20 20:53 | -20.81568 | 45.89057 | 37073 ft | 495 kts | 40° |
| 2026-04-20 20:54 | -20.76106 | 45.93550 | 37077 ft | 495 kts | 40° |
| 2026-04-20 20:54 | -20.70650 | 45.98030 | 37089 ft | 495 kts | 40° |
| 2026-04-20 20:55 | -20.65187 | 46.02510 | 37098 ft | 495 kts | 40° |
| 2026-04-20 20:55 | -20.59721 | 46.06995 | 37108 ft | 495 kts | 40° |
| 2026-04-20 20:56 | -20.54276 | 46.11465 | 37115 ft | 494 kts | 40° |
| 2026-04-20 20:56 | -20.48810 | 46.15931 | 37124 ft | 494 kts | 40° |
| 2026-04-20 20:57 | -20.43351 | 46.20385 | 37133 ft | 494 kts | 40° |
| 2026-04-20 20:57 | -20.37900 | 46.24841 | 37136 ft | 494 kts | 40° |
| 2026-04-20 20:58 | -20.32446 | 46.29296 | 37139 ft | 493 kts | 40° |
| 2026-04-20 20:58 | -20.27000 | 46.33740 | 37147 ft | 493 kts | 40° |
| 2026-04-20 20:59 | -20.21541 | 46.38182 | 37151 ft | 493 kts | 40° |
| 2026-04-20 20:59 | -20.16098 | 46.42610 | 37153 ft | 493 kts | 40° |
| 2026-04-20 21:00 | -20.10648 | 46.47045 | 37156 ft | 492 kts | 40° |
| 2026-04-20 21:00 | -20.05211 | 46.51469 | 37168 ft | 492 kts | 40° |
| 2026-04-20 21:01 | -19.99760 | 46.55888 | 37170 ft | 492 kts | 40° |
| 2026-04-20 21:01 | -19.94319 | 46.60303 | 37177 ft | 492 kts | 40° |
| 2026-04-20 21:02 | -19.88877 | 46.64718 | 37189 ft | 491 kts | 40° |
| 2026-04-20 21:02 | -19.83439 | 46.69108 | 37191 ft | 491 kts | 40° |
| 2026-04-20 21:03 | -19.77995 | 46.73500 | 37198 ft | 491 kts | 40° |
| 2026-04-20 21:03 | -19.72573 | 46.77884 | 36977 ft | 490 kts | 40° |
| 2026-04-20 21:04 | -19.69841 | 46.80094 | 35670 ft | 495 kts | 40° |
| 2026-04-20 21:04 | -19.67083 | 46.82332 | 34664 ft | 502 kts | 40° |
| 2026-04-20 21:04 | -19.64291 | 46.84594 | 33621 ft | 506 kts | 40° |
| 2026-04-20 21:04 | -19.61528 | 46.86821 | 32637 ft | 496 kts | 40° |
| 2026-04-20 21:05 | -19.58770 | 46.89038 | 31573 ft | 498 kts | 40° |
| 2026-04-20 21:05 | -19.56041 | 46.91229 | 30982 ft | 489 kts | 40° |
| 2026-04-20 21:05 | -19.53337 | 46.93401 | 30335 ft | 485 kts | 40° |
| 2026-04-20 21:05 | -19.50657 | 46.95557 | 29615 ft | 482 kts | 40° |
| 2026-04-20 21:06 | -19.48006 | 46.97689 | 29000 ft | 476 kts | 40° |
| 2026-04-20 21:06 | -19.45380 | 46.99800 | 28339 ft | 471 kts | 40° |
| 2026-04-20 21:06 | -19.42780 | 47.01891 | 27694 ft | 467 kts | 40° |
| 2026-04-20 21:06 | -19.40199 | 47.03966 | 27062 ft | 463 kts | 40° |
| 2026-04-20 21:07 | -19.37647 | 47.06017 | 26434 ft | 458 kts | 40° |
| 2026-04-20 21:07 | -19.35120 | 47.08047 | 25825 ft | 454 kts | 40° |
| 2026-04-20 21:07 | -19.32611 | 47.10063 | 25219 ft | 451 kts | 40° |
| 2026-04-20 21:07 | -19.30087 | 47.12089 | 24623 ft | 447 kts | 40° |
| 2026-04-20 21:08 | -19.27622 | 47.14066 | 24063 ft | 443 kts | 40° |
| 2026-04-20 21:08 | -19.25210 | 47.15999 | 23453 ft | 438 kts | 39° |
| 2026-04-20 21:08 | -19.22790 | 47.17938 | 22905 ft | 432 kts | 39° |
| 2026-04-20 21:08 | -19.20412 | 47.19842 | 22379 ft | 426 kts | 40° |
| 2026-04-20 21:09 | -19.18055 | 47.21732 | 21854 ft | 422 kts | 40° |
| 2026-04-20 21:09 | -19.15724 | 47.23600 | 21328 ft | 419 kts | 39° |
| 2026-04-20 21:09 | -19.13406 | 47.25458 | 20799 ft | 416 kts | 39° |
| 2026-04-20 21:09 | -19.11108 | 47.27302 | 20257 ft | 415 kts | 39° |
| 2026-04-20 21:10 | -19.08805 | 47.29147 | 19722 ft | 414 kts | 39° |
| 2026-04-20 21:10 | -19.06511 | 47.30977 | 19146 ft | 413 kts | 39° |
| 2026-04-20 21:10 | -19.04222 | 47.32801 | 18707 ft | 409 kts | 39° |
| 2026-04-20 21:10 | -19.01945 | 47.34617 | 18079 ft | 409 kts | 39° |
| 2026-04-20 21:11 | -18.99703 | 47.36410 | 17666 ft | 402 kts | 39° |
| 2026-04-20 21:11 | -18.97481 | 47.38189 | 17105 ft | 398 kts | 39° |
| 2026-04-20 21:11 | -18.95278 | 47.39949 | 16572 ft | 395 kts | 39° |
| 2026-04-20 21:11 | -18.93101 | 47.41683 | 16058 ft | 391 kts | 39° |
| 2026-04-20 21:12 | -18.90906 | 47.43428 | 15529 ft | 387 kts | 38° |
| 2026-04-20 21:12 | -18.88666 | 47.44961 | 15022 ft | 385 kts | 25° |
| 2026-04-20 21:12 | -18.86126 | 47.45663 | 14467 ft | 384 kts | 6° |
| 2026-04-20 21:12 | -18.83443 | 47.45370 | 13466 ft | 395 kts | 343° |
| 2026-04-20 21:13 | -18.81039 | 47.43966 | 12658 ft | 398 kts | 320° |
| 2026-04-20 21:13 | -18.79323 | 47.41728 | 12317 ft | 385 kts | 297° |
| 2026-04-20 21:13 | -18.78456 | 47.39139 | 12182 ft | 367 kts | 280° |
| 2026-04-20 21:13 | -18.78014 | 47.36546 | 12065 ft | 351 kts | 278° |
| 2026-04-20 21:14 | -18.77619 | 47.34052 | 11931 ft | 338 kts | 278° |
| 2026-04-20 21:14 | -18.77254 | 47.31646 | 11808 ft | 326 kts | 278° |
| 2026-04-20 21:14 | -18.76907 | 47.29320 | 11683 ft | 316 kts | 277° |
| 2026-04-20 21:14 | -18.76571 | 47.27060 | 11558 ft | 306 kts | 277° |
| 2026-04-20 21:15 | -18.76244 | 47.24877 | 11437 ft | 297 kts | 277° |
| 2026-04-20 21:15 | -18.75920 | 47.22727 | 11309 ft | 289 kts | 277° |
| 2026-04-20 21:15 | -18.75620 | 47.20692 | 11190 ft | 281 kts | 277° |
| 2026-04-20 21:15 | -18.75337 | 47.18663 | 11070 ft | 273 kts | 276° |
| 2026-04-20 21:16 | -18.75070 | 47.16703 | 10945 ft | 266 kts | 276° |
| 2026-04-20 21:16 | -18.74810 | 47.14794 | 10823 ft | 260 kts | 276° |
| 2026-04-20 21:16 | -18.74560 | 47.12954 | 10708 ft | 253 kts | 276° |
| 2026-04-20 21:16 | -18.74311 | 47.11144 | 10582 ft | 246 kts | 276° |
| 2026-04-20 21:17 | -18.74143 | 47.09351 | 10394 ft | 239 kts | 265° |
| 2026-04-20 21:17 | -18.74461 | 47.07659 | 10165 ft | 234 kts | 245° |
| 2026-04-20 21:17 | -18.75275 | 47.06206 | 9900 ft | 229 kts | 226° |
| 2026-04-20 21:17 | -18.76476 | 47.05139 | 9559 ft | 225 kts | 207° |
| 2026-04-20 21:18 | -18.77919 | 47.04561 | 9322 ft | 219 kts | 189° |
| 2026-04-20 21:18 | -18.79403 | 47.04492 | 9191 ft | 210 kts | 171° |
| 2026-04-20 21:18 | -18.80785 | 47.04886 | 8975 ft | 205 kts | 155° |
| 2026-04-20 21:18 | -18.81980 | 47.05688 | 8712 ft | 204 kts | 138° |
| 2026-04-20 21:19 | -18.82893 | 47.06829 | 8447 ft | 204 kts | 121° |
| 2026-04-20 21:19 | -18.83447 | 47.08200 | 8209 ft | 204 kts | 105° |
| 2026-04-20 21:19 | -18.83601 | 47.09686 | 7949 ft | 205 kts | 89° |
| 2026-04-20 21:20 | -18.82647 | 47.12485 | 7442 ft | 207 kts | 54° |
| 2026-04-20 21:20 | -18.81602 | 47.13545 | 7206 ft | 210 kts | 38° |
| 2026-04-20 21:20 | -18.80808 | 47.14109 | 7061 ft | 208 kts | 40° |
| 2026-04-20 21:20 | -18.79623 | 47.15659 | 6973 ft | 202 kts | 62° |
| 2026-04-20 21:21 | -18.78925 | 47.16949 | 6979 ft | 203 kts | 64° |
| 2026-04-20 21:21 | -18.78241 | 47.18258 | 6984 ft | 203 kts | 64° |
| 2026-04-20 21:21 | -18.77560 | 47.19565 | 6984 ft | 203 kts | 64° |
| 2026-04-20 21:21 | -18.76877 | 47.20866 | 6996 ft | 203 kts | 64° |
| 2026-04-20 21:22 | -18.76239 | 47.22190 | 6982 ft | 201 kts | 75° |
| 2026-04-20 21:22 | -18.76065 | 47.23622 | 7018 ft | 190 kts | 97° |
| 2026-04-20 21:22 | -18.76247 | 47.24926 | 7005 ft | 170 kts | 101° |
| 2026-04-20 21:22 | -18.76424 | 47.26092 | 6996 ft | 154 kts | 101° |
| 2026-04-20 21:23 | -18.76588 | 47.27175 | 6990 ft | 147 kts | 101° |
| 2026-04-20 21:23 | -18.76748 | 47.28236 | 6992 ft | 146 kts | 101° |
| 2026-04-20 21:23 | -18.76907 | 47.29287 | 7010 ft | 145 kts | 101° |
| 2026-04-20 21:23 | -18.77065 | 47.30340 | 7009 ft | 145 kts | 101° |
| 2026-04-20 21:24 | -18.77223 | 47.31392 | 6925 ft | 144 kts | 101° |
| 2026-04-20 21:24 | -18.77383 | 47.32452 | 6785 ft | 148 kts | 101° |
| 2026-04-20 21:24 | -18.77540 | 47.33501 | 6648 ft | 146 kts | 100° |
| 2026-04-20 21:24 | -18.77645 | 47.34196 | 6506 ft | 144 kts | 101° |
| 2026-04-20 21:25 | -18.77801 | 47.35239 | 6364 ft | 143 kts | 100° |
| 2026-04-20 21:25 | -18.77958 | 47.36284 | 6167 ft | 142 kts | 101° |
| 2026-04-20 21:25 | -18.78112 | 47.37310 | 5970 ft | 141 kts | 101° |
| 2026-04-20 21:25 | -18.78264 | 47.38327 | 5788 ft | 140 kts | 101° |
| 2026-04-20 21:26 | -18.78416 | 47.39342 | 5609 ft | 140 kts | 101° |
| 2026-04-20 21:26 | -18.78568 | 47.40354 | 5420 ft | 139 kts | 100° |
| 2026-04-20 21:26 | -18.78719 | 47.41366 | 5245 ft | 139 kts | 101° |
| 2026-04-20 21:26 | -18.78870 | 47.42375 | 5031 ft | 140 kts | 100° |
| 2026-04-20 21:27 | -18.79022 | 47.43387 | 4834 ft | 143 kts | 100° |
| 2026-04-20 21:27 | -18.79179 | 47.44434 | 4622 ft | 143 kts | 101° |
| 2026-04-20 21:27 | -18.79334 | 47.45464 | 4441 ft | 143 kts | 100° |
| 2026-04-20 21:27 | -18.79480 | 47.46506 | 4219 ft | 143 kts | 102° |
| 2026-04-20 21:28 | -18.79640 | 47.47518 | 4167 ft | 136 kts | 100° |
| 2026-04-20 21:28 | -18.79753 | 47.48270 | 4165 ft | 61 kts | 99° |
| 2026-04-20 21:28 | -18.79805 | 47.48616 | 4165 ft | 44 kts | 99° |
| 2026-04-20 21:28 | -18.79854 | 47.48923 | 4165 ft | 41 kts | 98° |
| 2026-04-20 21:29 | -18.79888 | 47.49182 | 4165 ft | 26 kts | 98° |
| 2026-04-20 21:29 | -18.79935 | 47.49282 | 4165 ft | 14 kts | 123° |
| 2026-04-20 21:29 | -18.79911 | 47.49310 | 4165 ft | 5 kts | 333° |
| 2026-04-20 21:29 | -18.79896 | 47.49273 | 4165 ft | 7 kts | 280° |
| 2026-04-20 21:30 | -18.79885 | 47.49189 | 4165 ft | 16 kts | 279° |
| 2026-04-20 21:30 | -18.79865 | 47.49043 | 4165 ft | 22 kts | 278° |
| 2026-04-20 21:30 | -18.79842 | 47.48877 | 4165 ft | 24 kts | 279° |
| 2026-04-20 21:30 | -18.79816 | 47.48697 | 4165 ft | 26 kts | 279° |
| 2026-04-20 21:31 | -18.79785 | 47.48504 | 4165 ft | 27 kts | 279° |
| 2026-04-20 21:31 | -18.79755 | 47.48299 | 4165 ft | 29 kts | 279° |
| 2026-04-20 21:31 | -18.79759 | 47.48137 | 4165 ft | 20 kts | 226° |
| 2026-04-20 21:31 | -18.79888 | 47.48114 | 4165 ft | 20 kts | 174° |
| 2026-04-20 21:32 | -18.79986 | 47.48113 | 4165 ft | 10 kts | 186° |
| 2026-04-20 21:32 | -18.80014 | 47.48110 | 4165 ft | 2 kts | 186° |